Impacts METAR Board
IDs:

KCSG - Columbus Arpt, GA, US

Updated at: 0300 UTC 23 Oct 2018
Potential Impact None Slight Moderate High
Time 22/15Z 22/16Z 22/17Z 22/18Z 22/19Z 22/20Z 22/21Z 22/22Z 22/23Z 23/00Z 23/01Z 23/02Z 23/03Z
Temp58 62 65 66 69 69 70 70 68 65 64 60 60
Dewpt38 40 41 45 46 46 48 49 51 51 51 53 53
Altim30.31 30.31 30.29 30.25 30.21 30.20 30.20 30.19 30.19 30.21 30.21 30.21 30.22
VIS10 10 10 10 10 10 10 10 10 10 10 10 10
CIG-- -- -- -- -- -- -- -- 50 -- -- -- --
CoverCLRFEWFEWCLRCLRFEWFEWFEWBKNCLRCLRCLRCLR
FltCatVFRVFRVFRVFRVFRVFRVFRVFRVFRVFRVFRVFRVFR
WX--------------------------
WDir10011001301401101500033040090
WSpd10 6 4 8 5 4 5 0 0 3 4 0 4
WGst-- -- -- -- -- -- -- -- -- -- -- -- --
Raw hourly METARs
KCSG 221451Z 10010KT 10SM CLR 14/03 A3031 RMK AO2 SLP262 T01440033 51010
KCSG 221551Z 11006KT 10SM FEW100 17/04 A3031 RMK AO2 SLP260 T01670044
KCSG 221651Z VRB04KT 10SM FEW120 18/05 A3029 RMK AO2 SLP255 T01830050
KCSG 221751Z 13008KT 10SM CLR 19/07 A3025 RMK AO2 SLP241 T01890072 10194 20078 58021
KCSG 221851Z 14005KT 10SM CLR 21/08 A3021 RMK AO2 SLP228 T02060078
KCSG 221951Z 11004KT 10SM FEW100 21/08 A3020 RMK AO2 SLP224 T02060078
KCSG 222051Z 15005KT 10SM FEW100 21/09 A3020 RMK AO2 SLP226 T02110089 55015
KCSG 222151Z 00000KT 10SM FEW050 21/09 A3019 RMK AO2 SLP222 T02110094
KCSG 222251Z 00000KT 10SM BKN050 20/11 A3019 RMK AO2 SLP221 T02000106
KCSG 222351Z 33003KT 10SM CLR 18/11 A3021 RMK AO2 SLP228 T01830106 10217 20183 53002
KCSG 230051Z 04004KT 10SM CLR 18/11 A3021 RMK AO2 SLP229 T01780106
KCSG 230151Z AUTO 00000KT 10SM CLR 16/12 A3021 RMK AO2 SLP229 T01560117
KCSG 230251Z AUTO 09004KT 10SM CLR 16/12 A3022 RMK AO2 SLP230 T01560117 52003



Page loaded:  03:44 UTC  |   08:44 PM Pacific  |   09:44 PM Mountain  |   10:44 PM Central  |   11:44 PM Eastern

 

ADVISORIES

FORECASTS

FORECASTS

OBSERVATIONS

USER TOOLS

ABOUT US